Time;durP1;ratioP1;P1;durP2;ratioP2;P2;SDS_P1;SDS_P2;PMS_P1;PMS_P2;Temp;Humidity;BMP_temperature;BMP_pressure;BME280_temperature;BME280_humidity;BME280_pressure;Samples;Min_cycle;Max_cycle;Signal;HPM_P1;HPM_P2
2022/03/25 00:02:10;;;;;;;21.37;10.27;;;;;;;11.58;28.54;95092.50;5021521;28;20203;-84
2022/03/25 00:04:37;;;;;;;24.13;10.33;;;;;;;11.59;28.16;95086.31;5032695;28;20205;-84
2022/03/25 00:07:05;;;;;;;22.03;10.40;;;;;;;11.54;28.65;95090.56;5030487;28;20190;-84
2022/03/25 00:09:31;;;;;;;19.57;10.13;;;;;;;11.52;28.38;95079.53;5021796;28;20200;-84
2022/03/25 00:11:58;;;;;;;18.60;9.63;;;;;;;11.52;28.49;95082.13;5030441;28;20210;-85
2022/03/25 00:14:26;;;;;;;23.67;10.00;;;;;;;11.50;28.82;95060.75;5031154;28;20226;-84
2022/03/25 00:16:53;;;;;;;19.40;10.20;;;;;;;11.53;28.13;95073.31;5025903;28;20202;-83
2022/03/25 00:19:20;;;;;;;19.77;9.67;;;;;;;11.56;28.80;95071.09;5022042;28;20216;-84
2022/03/25 00:21:47;;;;;;;15.90;8.93;;;;;;;11.54;28.49;95069.72;5031472;28;20659;-86
2022/03/25 00:24:14;;;;;;;15.00;8.70;;;;;;;11.57;28.48;95062.25;5026718;28;20194;-86
2022/03/25 00:26:40;;;;;;;17.87;9.53;;;;;;;11.47;28.52;95058.56;5029635;28;20199;-87
2022/03/25 00:29:07;;;;;;;19.50;9.57;;;;;;;11.21;28.56;95060.38;5032196;28;20575;-86
2022/03/25 00:31:35;;;;;;;26.23;10.47;;;;;;;11.14;28.92;95059.59;5026752;28;20199;-86
2022/03/25 00:34:02;;;;;;;20.40;9.77;;;;;;;11.16;29.45;95062.00;5025661;28;20559;-86
2022/03/25 00:36:29;;;;;;;19.83;10.03;;;;;;;11.21;29.11;95051.75;5031108;28;20282;-87
2022/03/25 00:38:56;;;;;;;19.10;9.47;;;;;;;11.24;28.62;95057.34;5035043;28;20650;-83
2022/03/25 00:41:23;;;;;;;14.97;8.53;;;;;;;11.25;29.40;95055.53;5019250;28;20202;-82
2022/03/25 00:43:50;;;;;;;16.00;8.60;;;;;;;11.32;29.32;95051.06;5023405;28;20207;-83
2022/03/25 00:46:17;;;;;;;17.77;9.80;;;;;;;11.28;29.36;95058.50;5025208;28;20287;-83
2022/03/25 00:48:45;;;;;;;20.10;11.80;;;;;;;11.22;29.06;95043.75;5039136;28;20195;-83
2022/03/25 00:51:12;;;;;;;21.40;9.87;;;;;;;11.23;28.81;95045.34;5037299;28;20198;-82
2022/03/25 00:53:40;;;;;;;18.00;9.13;;;;;;;11.18;29.27;95044.38;5024628;28;20658;-82
2022/03/25 00:56:07;;;;;;;18.07;10.17;;;;;;;11.16;29.22;95039.41;5019996;28;20210;-82
2022/03/25 00:58:34;;;;;;;18.57;9.33;;;;;;;11.08;29.25;95044.06;5035255;28;20238;-82
2022/03/25 01:01:01;;;;;;;16.03;8.90;;;;;;;11.08;29.44;95038.88;5033022;28;20752;-82
2022/03/25 01:03:30;;;;;;;17.93;8.87;;;;;;;10.99;29.54;95035.72;5028619;28;20209;-83
2022/03/25 01:05:58;;;;;;;20.37;9.50;;;;;;;10.97;29.72;95029.13;5031457;28;20674;-82
2022/03/25 01:08:27;;;;;;;15.57;9.67;;;;;;;10.94;30.07;95032.94;5031349;28;20199;-86
2022/03/25 01:10:53;;;;;;;15.13;9.10;;;;;;;10.87;29.72;95021.00;5018335;28;20761;-83
2022/03/25 01:13:20;;;;;;;13.13;7.77;;;;;;;10.85;29.83;95025.63;5023592;28;20218;-83
2022/03/25 01:15:47;;;;;;;17.63;9.10;;;;;;;10.85;29.54;95030.81;5024878;28;20195;-83
2022/03/25 01:18:14;;;;;;;15.37;8.87;;;;;;;10.77;30.32;95029.25;5018034;28;20211;-83
2022/03/25 01:20:41;;;;;;;17.93;7.70;;;;;;;10.76;29.88;95019.88;5016980;28;20242;-83
2022/03/25 01:23:09;;;;;;;16.20;9.13;;;;;;;10.78;29.88;95025.66;5025083;28;20194;-83
2022/03/25 01:25:36;;;;;;;15.13;9.00;;;;;;;10.80;30.05;95023.63;5018879;28;20211;-83
2022/03/25 01:28:03;;;;;;;15.10;8.40;;;;;;;10.77;29.89;95024.06;5021255;28;20195;-77
2022/03/25 01:30:30;;;;;;;15.27;9.17;;;;;;;10.79;30.37;95025.44;5021051;28;20192;-76
2022/03/25 01:32:57;;;;;;;14.70;8.13;;;;;;;10.83;30.08;95026.63;5019950;28;20202;-76
2022/03/25 01:35:24;;;;;;;16.23;8.87;;;;;;;10.85;29.74;95025.63;5023262;28;20205;-77
2022/03/25 01:37:51;;;;;;;15.20;9.30;;;;;;;10.79;29.60;95035.06;5022371;28;20608;-77
2022/03/25 01:40:19;;;;;;;18.83;10.63;;;;;;;10.84;30.15;95032.63;5025199;28;20215;-78
2022/03/25 01:42:47;;;;;;;19.37;10.77;;;;;;;10.82;29.83;95032.03;5020216;28;20210;-78
2022/03/25 01:45:14;;;;;;;18.60;10.37;;;;;;;10.74;30.27;95030.47;5019631;28;20187;-77
2022/03/25 01:47:41;;;;;;;20.23;9.80;;;;;;;10.54;30.35;95040.19;5020297;28;20217;-77
2022/03/25 01:50:19;;;;;;;19.47;9.57;;;;;;;10.43;30.67;95029.66;5025512;28;20196;-78
2022/03/25 01:52:47;;;;;;;16.67;9.03;;;;;;;10.51;30.26;95043.19;5023542;28;20242;-77
2022/03/25 01:55:16;;;;;;;21.23;8.63;;;;;;;10.53;29.61;95045.59;5023054;28;20198;-77
2022/03/25 01:57:44;;;;;;;14.37;8.20;;;;;;;10.47;30.09;95043.81;5026194;28;20242;-76
2022/03/25 02:00:13;;;;;;;18.23;8.37;;;;;;;10.57;29.59;95038.97;5023076;28;20226;-76
2022/03/25 02:02:40;;;;;;;20.60;9.73;;;;;;;10.47;29.58;95041.22;5023649;28;20650;-75
2022/03/25 02:05:08;;;;;;;15.80;8.93;;;;;;;10.44;29.49;95032.06;5023986;28;20210;-76
2022/03/25 02:07:35;;;;;;;25.37;8.90;;;;;;;10.49;30.83;95034.00;5024824;28;20606;-77
2022/03/25 02:10:01;;;;;;;16.43;8.90;;;;;;;10.38;30.20;95037.28;5024867;28;20193;-76
2022/03/25 02:12:28;;;;;;;17.73;9.53;;;;;;;10.31;30.24;95036.50;5023529;28;20195;-77
2022/03/25 02:14:57;;;;;;;19.23;9.73;;;;;;;10.34;30.21;95039.47;5026050;28;20299;-76
2022/03/25 02:17:24;;;;;;;22.00;9.40;;;;;;;10.40;30.44;95035.25;5023373;28;20203;-76
2022/03/25 02:19:51;;;;;;;20.57;10.10;;;;;;;10.40;30.47;95030.84;5027809;28;20233;-76
2022/03/25 02:22:19;;;;;;;16.63;9.97;;;;;;;10.24;30.41;95024.31;5022133;28;20660;-77
2022/03/25 02:24:47;;;;;;;18.43;9.80;;;;;;;10.12;30.87;95025.16;5024303;28;20199;-76
2022/03/25 02:27:15;;;;;;;16.87;9.67;;;;;;;10.12;30.82;95022.56;5020734;28;20577;-76
2022/03/25 02:29:41;;;;;;;17.30;9.83;;;;;;;10.15;30.36;95025.59;5024796;28;20658;-75
2022/03/25 02:32:12;;;;;;;14.40;8.93;;;;;;;10.11;30.86;95019.16;5024085;28;20310;-76
2022/03/25 02:34:41;;;;;;;19.70;9.83;;;;;;;10.05;30.87;95007.00;5023007;28;20297;-75
2022/03/25 02:37:08;;;;;;;18.33;10.10;;;;;;;9.94;30.87;95002.44;5027167;28;20188;-76
2022/03/25 02:39:36;;;;;;;25.40;11.07;;;;;;;9.99;31.05;95020.00;5023632;28;20218;-76
2022/03/25 02:42:04;;;;;;;25.87;12.27;;;;;;;9.98;31.20;95023.63;5022403;28;20199;-75
2022/03/25 02:44:31;;;;;;;25.07;11.40;;;;;;;9.87;31.65;95006.84;5025173;28;20207;-76
2022/03/25 02:46:58;;;;;;;20.70;11.83;;;;;;;9.85;30.92;95015.84;5023506;28;20196;-75
2022/03/25 02:49:24;;;;;;;29.63;12.50;;;;;;;9.89;31.76;95010.06;5021307;28;20760;-76
2022/03/25 02:51:51;;;;;;;25.53;12.73;;;;;;;9.86;31.17;95018.25;5023978;28;20203;-76
2022/03/25 02:54:18;;;;;;;24.63;12.30;;;;;;;9.80;31.36;95013.88;5021451;28;21035;-76
2022/03/25 02:56:46;;;;;;;24.03;10.80;;;;;;;9.82;31.01;95016.25;5021670;28;20666;-77
2022/03/25 02:59:13;;;;;;;19.17;10.13;;;;;;;9.79;31.43;95020.06;5023026;28;20910;-77
2022/03/25 03:01:40;;;;;;;21.87;10.80;;;;;;;9.82;31.16;95019.66;5028659;28;20218;-76
2022/03/25 03:04:09;;;;;;;23.83;11.50;;;;;;;9.79;31.51;95024.44;5022263;28;20214;-77
2022/03/25 03:06:36;;;;;;;22.93;11.80;;;;;;;9.77;31.43;95018.66;5021704;28;20202;-76
2022/03/25 03:09:03;;;;;;;23.73;12.03;;;;;;;9.72;31.32;95016.69;5023034;28;20267;-77
2022/03/25 03:11:30;;;;;;;22.57;11.43;;;;;;;9.65;32.21;95015.91;5022916;28;20199;-77
2022/03/25 03:13:59;;;;;;;20.77;11.40;;;;;;;9.50;32.32;95012.72;5020579;28;20210;-77
2022/03/25 03:16:26;;;;;;;19.90;11.90;;;;;;;9.29;32.04;95016.38;5023472;28;20581;-77
2022/03/25 03:18:52;;;;;;;22.57;12.10;;;;;;;9.19;32.57;95023.75;5022832;28;20198;-77
2022/03/25 03:21:24;;;;;;;26.33;12.17;;;;;;;9.09;32.70;95003.38;5021075;28;20691;-77
2022/03/25 03:23:51;;;;;;;24.90;11.53;;;;;;;9.05;32.52;95004.00;5023484;28;20217;-77
2022/03/25 03:26:19;;;;;;;22.80;12.20;;;;;;;9.21;32.24;95026.13;5022216;28;20207;-78
2022/03/25 03:28:45;;;;;;;24.20;10.87;;;;;;;9.25;32.73;95014.34;5023755;28;20691;-78
2022/03/25 03:31:14;;;;;;;23.37;11.73;;;;;;;9.42;32.28;95034.50;5022086;28;20195;-78
2022/03/25 03:33:41;;;;;;;21.20;10.87;;;;;;;9.48;32.89;95027.72;5025524;28;20203;-78
2022/03/25 03:36:08;;;;;;;22.20;11.07;;;;;;;9.58;32.58;95031.47;5021410;28;20202;-76
2022/03/25 03:38:35;;;;;;;22.70;10.73;;;;;;;9.61;33.06;95030.28;5023245;28;20734;-77
2022/03/25 03:41:02;;;;;;;19.27;10.77;;;;;;;9.64;32.54;95032.47;5022399;28;20218;-77
2022/03/25 03:43:29;;;;;;;19.67;10.77;;;;;;;9.63;32.28;95034.28;5021903;28;20207;-77
2022/03/25 03:45:56;;;;;;;20.17;10.00;;;;;;;9.61;31.69;95035.47;5013623;28;20674;-77
2022/03/25 03:48:24;;;;;;;21.07;9.80;;;;;;;9.58;32.48;95030.69;5018675;28;20209;-77
2022/03/25 03:50:51;;;;;;;18.43;9.97;;;;;;;9.51;32.01;95035.88;5016820;28;20639;-77
2022/03/25 03:53:17;;;;;;;41.90;10.73;;;;;;;9.55;31.96;95021.50;5018712;28;20203;-76
2022/03/25 03:55:44;;;;;;;18.83;10.23;;;;;;;9.57;32.43;95022.13;5019450;28;20196;-76
2022/03/25 03:58:11;;;;;;;20.47;10.50;;;;;;;9.39;32.79;95024.53;5022805;28;20355;-76
2022/03/25 04:00:38;;;;;;;20.43;10.43;;;;;;;9.36;32.70;95030.13;5016760;28;20604;-77
2022/03/25 04:03:06;;;;;;;23.50;10.87;;;;;;;9.37;33.04;95029.13;5019307;28;20257;-77
2022/03/25 04:05:34;;;;;;;18.80;10.83;;;;;;;9.12;32.85;95028.13;5021239;28;20254;-78
2022/03/25 04:08:01;;;;;;;22.13;11.17;;;;;;;8.93;33.04;95021.94;5020225;28;20204;-77
2022/03/25 04:10:28;;;;;;;25.67;12.40;;;;;;;8.85;32.92;95014.38;5021644;28;20662;-77
2022/03/25 04:12:55;;;;;;;23.57;12.17;;;;;;;8.91;33.29;95031.72;5019248;28;20302;-77
2022/03/25 04:15:22;;;;;;;27.70;12.23;;;;;;;8.95;33.08;95022.53;5020640;28;20203;-78
2022/03/25 04:17:49;;;;;;;24.07;11.73;;;;;;;9.02;32.67;95019.94;5020038;28;20217;-77
2022/03/25 04:20:17;;;;;;;28.80;12.13;;;;;;;9.14;32.91;95026.13;5023076;28;20233;-77
2022/03/25 04:22:47;;;;;;;23.77;12.47;;;;;;;9.22;32.34;95020.75;5018189;28;20290;-77
2022/03/25 04:25:15;;;;;;;29.57;12.53;;;;;;;9.35;32.10;95030.31;5019552;28;20207;-78
2022/03/25 04:27:52;;;;;;;27.30;13.40;;;;;;;9.42;32.87;95025.91;5023580;28;20195;-78
2022/03/25 04:30:21;;;;;;;25.37;13.57;;;;;;;9.40;32.79;95038.31;5019735;28;20195;-77
2022/03/25 04:32:48;;;;;;;29.40;14.43;;;;;;;9.16;32.67;95034.50;5021693;28;20215;-77
2022/03/25 04:35:14;;;;;;;31.23;15.17;;;;;;;8.90;33.22;95035.28;5018979;28;21525;-77
2022/03/25 04:37:41;;;;;;;30.90;17.17;;;;;;;8.73;33.23;95036.66;5019807;28;20198;-77
2022/03/25 04:40:12;;;;;;;33.80;17.83;;;;;;;8.80;33.47;95021.13;5020053;28;20704;-76
2022/03/25 04:42:38;;;;;;;41.33;20.33;;;;;;;9.07;32.68;95041.69;5020039;28;20202;-78
2022/03/25 04:45:06;;;;;;;41.77;21.00;;;;;;;9.10;32.92;95041.28;5020094;28;20358;-77
2022/03/25 04:47:33;;;;;;;38.57;18.37;;;;;;;9.12;32.98;95044.47;5015826;28;20191;-76
2022/03/25 04:50:00;;;;;;;46.60;18.37;;;;;;;9.17;32.97;95045.69;5019783;28;20787;-77
2022/03/25 04:52:27;;;;;;;32.77;15.53;;;;;;;9.11;32.81;95035.13;5020897;28;20677;-78
2022/03/25 04:54:53;;;;;;;30.13;15.47;;;;;;;9.17;32.43;95049.06;5025930;28;20210;-77
2022/03/25 04:57:22;;;;;;;26.07;14.80;;;;;;;9.25;32.73;95048.88;5020657;28;21287;-78
2022/03/25 04:59:49;;;;;;;32.70;15.33;;;;;;;8.93;32.89;95055.63;5020309;28;20235;-77
2022/03/25 05:02:16;;;;;;;31.27;15.40;;;;;;;8.75;33.28;95039.84;5018914;28;20223;-76
2022/03/25 05:04:43;;;;;;;30.47;16.20;;;;;;;8.80;33.12;95053.00;5017451;28;20207;-77
2022/03/25 05:07:14;;;;;;;35.57;16.40;;;;;;;8.63;33.86;95045.81;5017036;28;20194;-76
2022/03/25 05:09:41;;;;;;;38.30;17.47;;;;;;;8.64;34.20;95034.44;5021487;28;20576;-76
2022/03/25 05:12:09;;;;;;;41.27;19.77;;;;;;;8.82;33.79;95056.22;5020121;28;20717;-76
2022/03/25 05:14:37;;;;;;;39.90;20.20;;;;;;;8.99;33.68;95049.66;5015976;28;20187;-77
2022/03/25 05:17:05;;;;;;;36.50;17.40;;;;;;;9.11;33.90;95052.47;5017896;28;20557;-77
2022/03/25 05:19:31;;;;;;;35.43;16.50;;;;;;;9.22;33.20;95056.25;5017374;28;20682;-76
2022/03/25 05:21:59;;;;;;;33.20;15.93;;;;;;;9.34;33.36;95055.47;5020235;28;20733;-76
2022/03/25 05:24:26;;;;;;;30.60;15.27;;;;;;;9.44;32.87;95053.25;5020802;28;20732;-78
2022/03/25 05:26:53;;;;;;;26.20;13.83;;;;;;;9.54;32.94;95058.03;5021638;28;20226;-71
2022/03/25 05:29:20;;;;;;;31.57;13.63;;;;;;;9.64;32.75;95056.63;5021927;28;20249;-72
2022/03/25 05:31:48;;;;;;;24.57;12.97;;;;;;;9.79;33.10;95061.59;5023404;28;20192;-71
2022/03/25 05:34:15;;;;;;;22.27;12.27;;;;;;;9.83;32.60;95049.00;5016519;28;20206;-71
2022/03/25 05:36:41;;;;;;;23.63;13.10;;;;;;;9.93;32.74;95055.34;5024553;28;20210;-73
2022/03/25 05:39:08;;;;;;;28.87;13.60;;;;;;;9.97;32.34;95058.34;5024809;28;20198;-71
2022/03/25 05:41:35;;;;;;;28.43;13.60;;;;;;;10.03;32.42;95053.16;5024007;28;20678;-71
2022/03/25 05:44:02;;;;;;;29.23;12.93;;;;;;;10.13;32.26;95048.34;5025479;28;20199;-71
2022/03/25 05:46:29;;;;;;;24.20;13.20;;;;;;;10.14;31.85;95049.94;5023771;28;20195;-71
2022/03/25 05:48:58;;;;;;;28.83;13.17;;;;;;;10.10;32.20;95055.75;5022513;28;20691;-71
2022/03/25 05:51:25;;;;;;;27.10;13.80;;;;;;;10.25;31.65;95053.69;5025093;28;20278;-71
2022/03/25 05:53:52;;;;;;;28.47;12.73;;;;;;;10.23;32.25;95063.50;5024165;28;20208;-74
2022/03/25 05:56:20;;;;;;;45.10;13.57;;;;;;;10.26;31.30;95052.69;5023366;28;20257;-75
2022/03/25 05:58:49;;;;;;;21.73;12.70;;;;;;;10.28;32.18;95061.06;5023706;28;20231;-73
2022/03/25 06:01:16;;;;;;;29.50;12.37;;;;;;;10.32;31.82;95069.25;5025116;28;20273;-73
2022/03/25 06:03:43;;;;;;;25.87;13.03;;;;;;;10.51;31.84;95069.19;5022940;28;20258;-73
2022/03/25 06:06:11;;;;;;;21.27;11.70;;;;;;;10.65;31.14;95065.50;5023703;28;20204;-73
2022/03/25 06:08:38;;;;;;;20.13;11.77;;;;;;;10.89;30.32;95082.19;5024339;28;20425;-73
2022/03/25 06:11:05;;;;;;;19.20;10.23;;;;;;;10.98;30.11;95067.94;5023861;28;20196;-73
2022/03/25 06:13:32;;;;;;;23.47;11.13;;;;;;;10.96;30.67;95072.56;5023942;28;20192;-74
2022/03/25 06:15:59;;;;;;;22.67;11.50;;;;;;;11.01;30.31;95074.50;5022995;28;20192;-74
2022/03/25 06:18:26;;;;;;;22.87;11.43;;;;;;;11.15;29.75;95076.81;5023235;28;20321;-72
2022/03/25 06:20:52;;;;;;;19.53;10.53;;;;;;;11.29;30.05;95075.72;5025289;28;20222;-71
2022/03/25 06:23:21;;;;;;;23.63;10.50;;;;;;;11.41;29.26;95083.63;5022719;28;20647;-72
2022/03/25 06:25:48;;;;;;;18.37;10.73;;;;;;;11.44;29.39;95072.81;5022976;28;20249;-72
2022/03/25 06:28:15;;;;;;;20.80;10.57;;;;;;;11.32;29.39;95083.09;5022151;28;20624;-72
2022/03/25 06:30:43;;;;;;;15.80;10.30;;;;;;;11.38;29.14;95081.44;5023308;28;20666;-72
2022/03/25 06:33:11;;;;;;;21.07;11.53;;;;;;;11.45;28.90;95071.81;5023938;28;20195;-72
2022/03/25 06:35:39;;;;;;;22.77;12.13;;;;;;;11.53;29.32;95086.34;5022705;28;20198;-72
2022/03/25 06:38:12;;;;;;;17.37;11.17;;;;;;;11.64;28.95;95090.84;5021836;28;20206;-74
2022/03/25 06:40:50;;;;;;;20.80;11.70;;;;;;;11.70;28.91;95095.25;5022762;28;20227;-74
2022/03/25 06:43:17;;;;;;;26.73;12.43;;;;;;;11.71;29.15;95089.84;5024532;28;20622;-72
2022/03/25 06:45:44;;;;;;;18.97;11.70;;;;;;;11.49;29.23;95052.13;5024541;28;20196;-74
2022/03/25 06:48:11;;;;;;;24.03;11.93;;;;;;;11.68;28.90;95085.03;5024280;28;20203;-75
2022/03/25 06:50:38;;;;;;;27.07;11.43;;;;;;;11.71;29.02;95087.22;5022614;28;20286;-71
2022/03/25 06:53:07;;;;;;;22.20;11.80;;;;;;;11.72;28.65;95099.22;5023219;28;20191;-71
2022/03/25 06:55:36;;;;;;;25.83;11.90;;;;;;;11.84;29.02;95100.13;5023688;28;20207;-72
2022/03/25 06:58:09;;;;;;;20.03;11.70;;;;;;;11.80;28.63;95098.94;5023574;28;20683;-83
2022/03/25 07:00:40;;;;;;;20.00;11.67;;;;;;;11.80;28.98;95098.94;5034668;28;20640;-79
2022/03/25 07:03:11;;;;;;;22.27;12.23;;;;;;;11.90;28.93;95090.66;5020876;28;20702;-76
2022/03/25 07:05:40;;;;;;;22.57;12.97;;;;;;;12.00;28.72;95090.97;5021037;28;20193;-76
2022/03/25 07:08:07;;;;;;;24.17;12.40;;;;;;;11.94;28.83;95095.22;5025947;28;20262;-77
2022/03/25 07:10:36;;;;;;;18.97;12.70;;;;;;;11.93;28.86;95093.63;5023947;28;20206;-80
2022/03/25 07:13:05;;;;;;;23.57;12.70;;;;;;;11.87;29.49;95091.88;5026825;28;20282;-78
2022/03/25 07:15:32;;;;;;;29.37;13.37;;;;;;;12.17;28.94;95117.25;5024952;28;20203;-80
2022/03/25 07:18:00;;;;;;;22.97;12.37;;;;;;;12.33;28.57;95103.63;5023275;28;20206;-78
2022/03/25 07:20:27;;;;;;;30.93;12.70;;;;;;;12.34;28.29;95092.22;5024198;28;20214;-79
2022/03/25 07:22:55;;;;;;;23.57;13.07;;;;;;;12.29;28.58;95098.09;5023328;28;20612;-79
2022/03/25 07:25:21;;;;;;;22.90;12.73;;;;;;;12.25;28.70;95099.53;5023107;28;20203;-79
2022/03/25 07:27:49;;;;;;;26.57;13.37;;;;;;;12.23;29.35;95090.34;5023780;28;20202;-79
2022/03/25 07:30:18;;;;;;;23.80;13.23;;;;;;;12.21;29.45;95082.72;5021787;28;20634;-77
2022/03/25 07:32:46;;;;;;;28.67;13.63;;;;;;;12.42;29.08;95100.53;5022123;28;20689;-77
2022/03/25 07:35:13;;;;;;;22.83;13.33;;;;;;;12.42;29.09;95095.31;5021448;28;20643;-77
2022/03/25 07:37:41;;;;;;;21.77;13.83;;;;;;;12.46;28.87;95108.72;5022855;28;20195;-79
2022/03/25 07:40:10;;;;;;;23.20;13.03;;;;;;;12.67;28.60;95102.25;5029858;28;20202;-84
2022/03/25 07:42:37;;;;;;;22.53;12.83;;;;;;;12.74;28.31;95097.75;5024435;28;20247;-79
2022/03/25 07:45:05;;;;;;;28.00;13.57;;;;;;;12.75;28.52;95104.56;5028208;28;20200;-75
2022/03/25 07:47:33;;;;;;;24.70;13.07;;;;;;;12.91;28.72;95104.75;5026527;28;20195;-78
2022/03/25 07:50:00;;;;;;;31.47;14.10;;;;;;;13.00;28.16;95110.44;5022431;28;20706;-78
2022/03/25 07:52:27;;;;;;;26.23;13.83;;;;;;;12.95;28.17;95105.09;5025102;28;20198;-79
2022/03/25 07:54:54;;;;;;;20.50;12.80;;;;;;;12.89;28.29;95116.41;5021270;28;20206;-79
2022/03/25 07:57:21;;;;;;;35.63;13.33;;;;;;;12.89;27.91;95101.56;5022129;28;20235;-78
2022/03/25 07:59:48;;;;;;;29.87;13.00;;;;;;;12.90;27.66;95120.63;5022551;28;20230;-78
2022/03/25 08:02:15;;;;;;;29.00;13.97;;;;;;;13.00;28.52;95111.25;5021727;28;20254;-77
2022/03/25 08:04:43;;;;;;;32.90;13.20;;;;;;;13.03;28.08;95115.22;5022683;28;20195;-79
2022/03/25 08:07:09;;;;;;;21.80;13.00;;;;;;;13.06;27.95;95086.88;5022048;28;20669;-78
2022/03/25 08:09:36;;;;;;;42.53;14.40;;;;;;;13.08;27.68;95112.78;5020685;28;20202;-78
2022/03/25 08:12:05;;;;;;;30.20;12.33;;;;;;;13.05;27.64;95107.97;5023501;28;20195;-79
2022/03/25 08:14:32;;;;;;;35.17;13.03;;;;;;;13.02;27.62;95114.44;5022340;28;20285;-79
2022/03/25 08:16:58;;;;;;;30.43;13.43;;;;;;;13.13;27.86;95118.13;5025941;28;20191;-78
2022/03/25 08:19:25;;;;;;;26.20;12.67;;;;;;;13.06;27.70;95104.34;5021400;28;20206;-78
2022/03/25 08:21:53;;;;;;;28.80;13.10;;;;;;;13.09;28.01;95109.16;5019638;28;20219;-78
2022/03/25 08:29:48;;;;;;;34.10;12.93;;;;;;;13.25;27.59;95124.19;5021221;28;20808;-78
2022/03/25 08:32:16;;;;;;;26.47;12.93;;;;;;;13.30;27.54;95113.09;5025030;28;20578;-77
2022/03/25 08:34:43;;;;;;;22.33;12.80;;;;;;;13.39;27.76;95104.69;5020351;28;20207;-79
2022/03/25 08:37:11;;;;;;;29.83;13.30;;;;;;;13.51;27.37;95108.13;5020768;28;20199;-78
2022/03/25 08:39:38;;;;;;;25.30;12.90;;;;;;;13.63;27.32;95090.66;5023709;28;20202;-78
2022/03/25 08:42:08;;;;;;;23.40;11.77;;;;;;;13.67;26.98;95126.78;5020227;28;20234;-77
2022/03/25 08:44:34;;;;;;;26.57;12.57;;;;;;;13.77;27.09;95106.09;5021612;28;20191;-75
2022/03/25 08:47:01;;;;;;;33.63;12.80;;;;;;;13.80;27.13;95100.44;5019701;28;20639;-78
2022/03/25 08:49:29;;;;;;;23.67;12.77;;;;;;;13.83;27.10;95113.03;5024197;28;20214;-77
2022/03/25 08:51:56;;;;;;;26.90;12.57;;;;;;;13.86;26.82;95087.25;5020399;28;20575;-78
2022/03/25 08:54:25;;;;;;;26.47;13.30;;;;;;;13.90;26.87;95098.88;5019905;28;20202;-76
2022/03/25 08:56:53;;;;;;;22.97;11.87;;;;;;;14.03;26.78;95096.00;5018919;28;20201;-79
2022/03/25 08:59:20;;;;;;;19.73;11.47;;;;;;;14.14;26.41;95092.59;5022821;28;20288;-76
2022/03/25 09:01:47;;;;;;;27.10;12.07;;;;;;;14.34;26.35;95097.50;5022511;28;20686;-75
2022/03/25 09:04:14;;;;;;;24.80;12.40;;;;;;;14.48;26.52;95061.44;5019558;28;20207;-76
2022/03/25 09:06:40;;;;;;;28.03;11.87;;;;;;;14.60;26.14;95091.75;5021588;28;20202;-76
2022/03/25 09:09:07;;;;;;;28.90;11.23;;;;;;;14.73;25.74;95072.38;5019977;28;20202;-76
2022/03/25 09:11:35;;;;;;;29.47;11.80;;;;;;;14.77;25.44;95089.97;5019154;28;20199;-75
2022/03/25 09:14:02;;;;;;;30.50;11.47;;;;;;;14.80;25.11;95080.91;5021987;28;20233;-76
2022/03/25 09:16:29;;;;;;;27.73;11.47;;;;;;;14.88;24.99;95077.91;5020165;28;20202;-76
2022/03/25 09:18:56;;;;;;;21.33;10.57;;;;;;;15.00;25.45;95083.91;5018245;28;20192;-76
2022/03/25 09:21:22;;;;;;;28.17;11.90;;;;;;;15.05;24.83;95064.84;5020491;28;20194;-76
2022/03/25 09:23:49;;;;;;;22.43;10.53;;;;;;;15.16;25.14;95062.19;5020044;28;20301;-76
2022/03/25 09:26:18;;;;;;;23.93;10.57;;;;;;;15.25;24.34;95062.59;5021323;28;20218;-76
2022/03/25 09:28:46;;;;;;;25.40;10.50;;;;;;;15.60;24.26;95059.78;5024090;28;20198;-76
2022/03/25 09:31:13;;;;;;;20.27;10.77;;;;;;;15.73;23.97;95059.44;5018350;28;20195;-76
2022/03/25 09:33:40;;;;;;;24.17;11.00;;;;;;;15.91;23.80;95064.44;5021493;28;20616;-76
2022/03/25 09:36:06;;;;;;;26.27;10.43;;;;;;;15.97;23.39;95073.16;5020509;28;20187;-76
2022/03/25 09:38:33;;;;;;;21.60;9.83;;;;;;;15.97;23.10;95070.53;5020598;28;20621;-76
2022/03/25 09:41:04;;;;;;;17.37;10.60;;;;;;;16.28;23.31;95046.31;5020331;28;20206;-75
2022/03/25 09:43:30;;;;;;;24.07;10.33;;;;;;;16.23;23.38;95062.78;5021941;28;20237;-76
2022/03/25 09:45:59;;;;;;;24.83;9.90;;;;;;;16.38;23.19;95070.88;5020234;28;20245;-76
2022/03/25 09:48:26;;;;;;;27.23;9.43;;;;;;;16.57;22.89;95070.56;5020073;28;20206;-75
2022/03/25 09:50:53;;;;;;;27.33;9.73;;;;;;;16.77;22.32;95071.59;5020605;28;20206;-77
2022/03/25 09:53:20;;;;;;;22.93;9.40;;;;;;;16.73;22.34;95060.03;5021853;28;20195;-75
2022/03/25 09:55:51;;;;;;;19.47;9.37;;;;;;;16.93;22.65;95055.00;5019806;28;20198;-75
2022/03/25 09:58:20;;;;;;;18.67;10.20;;;;;;;17.04;21.98;95069.00;5021201;28;20237;-75
2022/03/25 10:00:51;;;;;;;20.23;9.53;;;;;;;17.01;21.76;95059.00;5019133;28;20195;-75
2022/03/25 10:03:27;;;;;;;22.90;9.33;;;;;;;17.10;21.52;95068.03;5018682;28;20223;-75
2022/03/25 10:05:55;;;;;;;22.03;9.43;;;;;;;17.26;21.36;95061.06;5019625;28;20210;-76
2022/03/25 10:08:29;;;;;;;23.30;9.77;;;;;;;17.21;21.23;95068.91;5020127;28;20210;-75
2022/03/25 10:10:56;;;;;;;21.47;9.00;;;;;;;17.25;21.02;95064.75;5020362;28;20277;-75
2022/03/25 10:13:23;;;;;;;18.53;8.90;;;;;;;17.51;20.54;95059.47;5023018;28;20575;-77
2022/03/25 10:15:50;;;;;;;24.40;9.57;;;;;;;17.71;21.02;95074.66;5028353;28;20662;-77
2022/03/25 10:18:19;;;;;;;20.93;8.57;;;;;;;17.85;20.34;95078.44;5024612;28;20261;-76
2022/03/25 10:20:47;;;;;;;14.50;8.50;;;;;;;17.75;20.56;95074.94;5023963;28;20281;-77
2022/03/25 10:23:15;;;;;;;18.73;8.83;;;;;;;17.86;20.43;95072.13;5022757;28;20226;-76
2022/03/25 10:25:47;;;;;;;16.47;8.37;;;;;;;17.78;20.19;95062.06;5026989;28;20207;-77
2022/03/25 10:28:27;;;;;;;25.97;8.73;;;;;;;17.78;19.70;95075.19;5024134;28;20227;-77
2022/03/25 10:30:56;;;;;;;15.13;8.97;;;;;;;17.70;20.31;95065.16;5022484;28;20248;-77
2022/03/25 10:33:29;;;;;;;15.40;8.20;;;;;;;17.91;20.08;95071.38;5023015;28;20589;-77
2022/03/25 10:35:59;;;;;;;13.17;8.60;;;;;;;17.99;20.23;95052.47;5022657;28;20195;-76
2022/03/25 10:38:28;;;;;;;16.92;8.55;;;;;;;18.17;20.11;95033.66;5025074;28;20199;-76
2022/03/25 10:40:57;;;;;;;16.43;8.60;;;;;;;18.09;20.16;95049.91;5023558;28;20210;-77
2022/03/25 10:43:25;;;;;;;22.20;9.53;;;;;;;18.24;20.28;95051.84;5023551;28;20226;-78
2022/03/25 10:45:52;;;;;;;15.87;8.33;;;;;;;18.70;19.93;95051.78;5020358;28;20230;-76
2022/03/25 10:48:21;;;;;;;12.10;8.10;;;;;;;18.75;19.17;95053.66;5023011;28;20286;-76
2022/03/25 10:51:11;;;;;;;12.30;7.50;;;;;;;18.76;19.06;95057.88;5024311;28;20231;-77
2022/03/25 10:53:43;;;;;;;14.98;8.15;;;;;;;18.61;19.31;95042.81;5014833;28;20191;-77
2022/03/25 10:56:11;;;;;;;12.75;7.82;;;;;;;18.79;19.26;95052.09;5025460;28;20198;-76
2022/03/25 10:58:38;;;;;;;13.18;8.38;;;;;;;19.07;19.01;95051.66;5022049;28;20223;-77
2022/03/25 11:01:07;;;;;;;17.95;8.43;;;;;;;19.14;18.72;95043.47;5022590;28;20207;-76
2022/03/25 11:03:34;;;;;;;12.40;7.57;;;;;;;19.25;18.83;95029.25;5022645;28;20219;-77
2022/03/25 11:06:01;;;;;;;16.02;8.02;;;;;;;19.58;19.00;95035.91;5023381;28;20200;-77
2022/03/25 11:08:30;;;;;;;21.25;7.85;;;;;;;19.53;18.41;95054.38;5022040;28;20222;-76
2022/03/25 11:10:58;;;;;;;15.20;8.00;;;;;;;19.46;18.66;95030.88;5024348;28;20636;-76
2022/03/25 11:13:27;;;;;;;17.10;7.68;;;;;;;19.53;18.70;95028.78;5023446;28;20199;-76
2022/03/25 11:15:56;;;;;;;17.02;8.02;;;;;;;19.21;18.58;95026.38;5022967;28;20233;-78
2022/03/25 11:18:27;;;;;;;15.25;7.97;;;;;;;19.18;18.59;95026.91;5023204;28;20231;-74
2022/03/25 11:20:56;;;;;;;13.27;7.45;;;;;;;19.06;18.85;95026.34;5020532;28;20694;-76
2022/03/25 11:23:28;;;;;;;12.05;7.72;;;;;;;19.44;18.66;95026.94;5022223;28;20219;-75
2022/03/25 11:25:58;;;;;;;14.80;7.57;;;;;;;19.20;18.64;95026.63;5020415;28;20225;-77
2022/03/25 11:28:30;;;;;;;14.57;7.85;;;;;;;19.40;18.45;95015.31;5021555;28;20294;-76
2022/03/25 11:30:59;;;;;;;11.02;7.45;;;;;;;19.41;18.67;95023.00;5021119;28;20313;-77